Database: COMPET-N - COOP - 3PL - 4PL - CNDOOM

WAD: Doom | Doom 2 | TNT | Plutonia | AV | HR | Scythe | MM | MM2 | Requiem | CE
Category: speed | nmare | max | nm100s | tyson | pacifist | fast | respawn | nomo | misc | built | all
Highscore: ALL | IWAD | PWAD | Country | Continent

< Previous map       Next map >
Remove: wad | map | category | player | allMAP19
MapPlayerTimeDateFilenameCommentsDL
MAP19: Shipping/RespawningVincent Catalaa50.002001-12-20ev19-050.zip - 145
MAP19: Shipping/RespawningAdam Williamson52.002001-11-29ev19-052.zip - 89
MAP19: Shipping/RespawningVincent Catalaa53.002001-08-17ev19-053.zip - 66
MAP19: Shipping/RespawningJim Leonard1:11.002001-08-16ev19-111.zip - 135
MAP19: Shipping/RespawningVincent Catalaa1:12.002000-03-01ev19-112.zip - 66
MAP19: Shipping/RespawningIlya Britvich1:19.001997-10-21ev19-119.zip - 76
MAP19: Shipping/RespawningPeo Sjoblom1:29.001997-02-01ev19-129.zip - 56
MAP19: Shipping/RespawningJim Leonard1:05.002002-08-13tn19-105.zip - 167
MAP19: Shipping/RespawningJim Leonard1:09.002002-08-13tn19-109.zip - 132
MAP19: Shipping/RespawningJim Leonard1:10.002002-02-13tn19-110.zip - 159
MAP19: Shipping/RespawningIlya Britvich1:11.002002-02-03tn19-111.zip - 61
MAP19: Shipping/RespawningJim Leonard1:14.002002-08-05tn19-114.zip - 131
MAP19: Shipping/RespawningAdam Williamson1:18.002001-11-29tn19-118.zip - 84
MAP19: Shipping/RespawningIlya Britvich1:19.002000-09-21tn19-119.zip - 74
MAP19: Shipping/RespawningRobert J. Reevy2:47.001997-12-22e19n-247.zip - 45
MAP19: Shipping/RespawningPeo Sjoblom4:34.001997-03-04ev19-nm.zip - 49
MAP19: Shipping/RespawningJim Leonard5:22.002005-02-10ev19-522.zip - 183
MAP19: Shipping/RespawningAnthony Soto5:31.002001-04-01ev19-531.zip - 55
MAP19: Shipping/RespawningAnthony Soto5:46.002000-11-04ev19-546.zip - 65
MAP19: Shipping/RespawningPeo Sjoblom7:12.001997-02-02ev19-712.zip - 42
MAP19: Shipping/RespawningJim Leonard1:18.002003-02-13es19-118.zip - 176
MAP19: Shipping/RespawningIlya Britvich1:20.002003-02-03es19-120.zip - 64
MAP19: Shipping/RespawningJim Leonard1:25.002002-08-04es19-125.zip - 154
MAP19: Shipping/RespawningChris Laverdure1:34.002002-01-31es19-134.zip - 60
MAP19: Shipping/RespawningJim Leonard3:14.002001-11-25es19-314.zip - 126
MAP19: Shipping/RespawningJim Leonard33:04.002004-12-16et193304.zip - 178
MAP19: Shipping/RespawningAdam Williamson54.002001-11-29ep19-054.zip - 146
MAP19: Shipping/RespawningChris Laverdure1:04.002001-11-27ep19-104.zip - 59
MAP19: Shipping/RespawningVincent Catalaa1:24.002001-09-05ep19-124.zip - 61
MAP19: Shipping/RespawningJim Leonard1:44.002001-08-16ep19-144.zip - 127
MAP19: Shipping/RespawningRevved 7:27.002012-07-16ef19-727.zip - 162
MAP19: Shipping/RespawningJim Leonard8:21.002003-01-09ef19-821.zip - 144
MAP19: Shipping/RespawningPeo Sjoblom10:57.001997-01-13tnt19-gm.zip - 55
MAP19: Shipping/RespawningJim Leonard5:03.002002-08-17er19-503.zip - 180
Remove: wad | map | category | player | all